sensor_id;sensor_type;location;lat;lon;timestamp;temperature;humidity
57829;DHT22;43657;52.698;6.314;2023-09-18T00:00:39;16.50;99.90
57829;DHT22;43657;52.698;6.314;2023-09-18T00:03:04;16.50;99.90
57829;DHT22;43657;52.698;6.314;2023-09-18T00:05:30;16.60;99.90
57829;DHT22;43657;52.698;6.314;2023-09-18T00:07:56;16.60;99.90
57829;DHT22;43657;52.698;6.314;2023-09-18T00:10:22;16.60;99.90
57829;DHT22;43657;52.698;6.314;2023-09-18T00:12:47;16.60;99.90
57829;DHT22;43657;52.698;6.314;2023-09-18T00:15:13;16.60;99.90
57829;DHT22;43657;52.698;6.314;2023-09-18T00:17:39;16.60;99.90
57829;DHT22;43657;52.698;6.314;2023-09-18T00:20:05;16.60;99.90
57829;DHT22;43657;52.698;6.314;2023-09-18T00:22:32;16.50;99.90
57829;DHT22;43657;52.698;6.314;2023-09-18T00:24:57;16.50;99.90
57829;DHT22;43657;52.698;6.314;2023-09-18T00:27:23;16.40;99.90
57829;DHT22;43657;52.698;6.314;2023-09-18T00:29:49;16.40;99.90
57829;DHT22;43657;52.698;6.314;2023-09-18T00:32:14;16.40;99.90
57829;DHT22;43657;52.698;6.314;2023-09-18T00:34:40;16.30;99.90
57829;DHT22;43657;52.698;6.314;2023-09-18T00:37:05;16.40;99.90
57829;DHT22;43657;52.698;6.314;2023-09-18T00:39:31;16.40;99.90
57829;DHT22;43657;52.698;6.314;2023-09-18T00:41:57;16.40;99.90
57829;DHT22;43657;52.698;6.314;2023-09-18T00:44:23;16.30;99.90
57829;DHT22;43657;52.698;6.314;2023-09-18T00:46:50;16.40;99.90
57829;DHT22;43657;52.698;6.314;2023-09-18T00:49:17;16.50;99.90
57829;DHT22;43657;52.698;6.314;2023-09-18T00:51:44;16.60;99.90
57829;DHT22;43657;52.698;6.314;2023-09-18T00:54:10;16.60;99.90
57829;DHT22;43657;52.698;6.314;2023-09-18T00:56:36;16.70;99.90
57829;DHT22;43657;52.698;6.314;2023-09-18T00:59:02;16.80;99.90
57829;DHT22;43657;52.698;6.314;2023-09-18T01:01:28;16.80;99.90
57829;DHT22;43657;52.698;6.314;2023-09-18T01:03:56;16.80;99.90
57829;DHT22;43657;52.698;6.314;2023-09-18T01:06:25;16.80;99.90
57829;DHT22;43657;52.698;6.314;2023-09-18T01:08:53;16.80;99.90
57829;DHT22;43657;52.698;6.314;2023-09-18T01:14:00;16.70;99.90
57829;DHT22;43657;52.698;6.314;2023-09-18T01:16:34;16.70;99.90
57829;DHT22;43657;52.698;6.314;2023-09-18T01:19:02;16.90;99.90
57829;DHT22;43657;52.698;6.314;2023-09-18T01:21:28;16.90;99.90
57829;DHT22;43657;52.698;6.314;2023-09-18T01:23:54;17.00;99.90
57829;DHT22;43657;52.698;6.314;2023-09-18T01:26:20;17.00;99.90
57829;DHT22;43657;52.698;6.314;2023-09-18T01:28:45;17.00;99.90
57829;DHT22;43657;52.698;6.314;2023-09-18T01:31:11;16.90;99.90
57829;DHT22;43657;52.698;6.314;2023-09-18T01:33:37;16.90;99.90
57829;DHT22;43657;52.698;6.314;2023-09-18T01:36:06;16.90;99.90
57829;DHT22;43657;52.698;6.314;2023-09-18T01:38:33;16.80;99.90
57829;DHT22;43657;52.698;6.314;2023-09-18T01:40:59;16.80;99.90
57829;DHT22;43657;52.698;6.314;2023-09-18T01:43:26;16.80;99.90
57829;DHT22;43657;52.698;6.314;2023-09-18T01:45:52;16.90;99.90
57829;DHT22;43657;52.698;6.314;2023-09-18T01:48:18;16.90;99.90
57829;DHT22;43657;52.698;6.314;2023-09-18T01:50:44;16.90;99.90
57829;DHT22;43657;52.698;6.314;2023-09-18T01:53:09;16.80;99.90
57829;DHT22;43657;52.698;6.314;2023-09-18T01:55:35;16.90;99.90
57829;DHT22;43657;52.698;6.314;2023-09-18T01:58:01;16.80;99.90
57829;DHT22;43657;52.698;6.314;2023-09-18T02:00:26;16.80;99.90
57829;DHT22;43657;52.698;6.314;2023-09-18T02:02:52;16.80;99.90
57829;DHT22;43657;52.698;6.314;2023-09-18T02:05:17;16.80;99.90
57829;DHT22;43657;52.698;6.314;2023-09-18T02:07:43;16.80;99.90
57829;DHT22;43657;52.698;6.314;2023-09-18T02:10:08;16.80;99.90
57829;DHT22;43657;52.698;6.314;2023-09-18T02:12:34;16.80;99.90
57829;DHT22;43657;52.698;6.314;2023-09-18T02:14:59;16.80;99.90
57829;DHT22;43657;52.698;6.314;2023-09-18T02:17:30;16.90;99.90
57829;DHT22;43657;52.698;6.314;2023-09-18T02:19:55;17.00;99.90
57829;DHT22;43657;52.698;6.314;2023-09-18T02:22:21;17.00;99.90
57829;DHT22;43657;52.698;6.314;2023-09-18T02:24:47;17.00;99.90
57829;DHT22;43657;52.698;6.314;2023-09-18T02:27:12;17.10;99.90
57829;DHT22;43657;52.698;6.314;2023-09-18T02:29:38;17.10;99.90
57829;DHT22;43657;52.698;6.314;2023-09-18T02:32:03;17.10;99.90
57829;DHT22;43657;52.698;6.314;2023-09-18T02:34:29;17.10;99.90
57829;DHT22;43657;52.698;6.314;2023-09-18T02:36:55;17.10;99.90
57829;DHT22;43657;52.698;6.314;2023-09-18T02:39:20;17.00;99.90
57829;DHT22;43657;52.698;6.314;2023-09-18T02:41:46;17.00;99.90
57829;DHT22;43657;52.698;6.314;2023-09-18T02:44:12;17.10;99.90
57829;DHT22;43657;52.698;6.314;2023-09-18T02:46:38;17.10;99.90
57829;DHT22;43657;52.698;6.314;2023-09-18T02:49:04;17.20;99.90
57829;DHT22;43657;52.698;6.314;2023-09-18T02:51:29;17.10;99.90
57829;DHT22;43657;52.698;6.314;2023-09-18T02:53:57;17.10;99.90
57829;DHT22;43657;52.698;6.314;2023-09-18T02:56:22;17.10;99.90
57829;DHT22;43657;52.698;6.314;2023-09-18T02:58:48;17.10;99.90
57829;DHT22;43657;52.698;6.314;2023-09-18T03:01:13;17.10;99.90
57829;DHT22;43657;52.698;6.314;2023-09-18T03:03:39;17.10;99.90
57829;DHT22;43657;52.698;6.314;2023-09-18T03:06:07;17.10;99.90
57829;DHT22;43657;52.698;6.314;2023-09-18T03:08:33;17.10;99.90
57829;DHT22;43657;52.698;6.314;2023-09-18T03:10:59;17.10;99.90
57829;DHT22;43657;52.698;6.314;2023-09-18T03:13:27;17.10;99.90
57829;DHT22;43657;52.698;6.314;2023-09-18T03:15:53;17.10;99.90
57829;DHT22;43657;52.698;6.314;2023-09-18T03:18:18;17.10;99.90
57829;DHT22;43657;52.698;6.314;2023-09-18T03:20:44;17.10;99.90
57829;DHT22;43657;52.698;6.314;2023-09-18T03:23:10;17.10;99.90
57829;DHT22;43657;52.698;6.314;2023-09-18T03:25:36;17.20;99.90
57829;DHT22;43657;52.698;6.314;2023-09-18T03:28:05;17.20;99.90
57829;DHT22;43657;52.698;6.314;2023-09-18T03:30:31;17.30;99.90
57829;DHT22;43657;52.698;6.314;2023-09-18T03:32:57;17.40;99.90
57829;DHT22;43657;52.698;6.314;2023-09-18T03:35:22;17.40;99.90
57829;DHT22;43657;52.698;6.314;2023-09-18T03:37:49;17.50;99.90
57829;DHT22;43657;52.698;6.314;2023-09-18T03:40:18;17.50;99.90
57829;DHT22;43657;52.698;6.314;2023-09-18T03:42:45;17.50;99.90
57829;DHT22;43657;52.698;6.314;2023-09-18T03:45:11;17.60;99.90
57829;DHT22;43657;52.698;6.314;2023-09-18T03:47:38;17.60;99.90
57829;DHT22;43657;52.698;6.314;2023-09-18T03:50:08;17.60;99.90
57829;DHT22;43657;52.698;6.314;2023-09-18T03:52:35;17.60;99.90
57829;DHT22;43657;52.698;6.314;2023-09-18T03:55:01;17.60;99.90
57829;DHT22;43657;52.698;6.314;2023-09-18T03:57:26;17.60;99.90
57829;DHT22;43657;52.698;6.314;2023-09-18T03:59:52;17.60;99.90
57829;DHT22;43657;52.698;6.314;2023-09-18T04:02:18;17.60;99.90
57829;DHT22;43657;52.698;6.314;2023-09-18T04:04:43;17.60;99.90
57829;DHT22;43657;52.698;6.314;2023-09-18T04:07:09;17.60;99.90
57829;DHT22;43657;52.698;6.314;2023-09-18T04:09:37;17.60;99.90
57829;DHT22;43657;52.698;6.314;2023-09-18T04:12:03;17.60;99.90
57829;DHT22;43657;52.698;6.314;2023-09-18T04:14:31;17.60;99.90
57829;DHT22;43657;52.698;6.314;2023-09-18T04:16:57;17.60;99.90
57829;DHT22;43657;52.698;6.314;2023-09-18T04:19:22;17.50;99.90
57829;DHT22;43657;52.698;6.314;2023-09-18T04:21:48;17.50;99.90
57829;DHT22;43657;52.698;6.314;2023-09-18T04:24:14;17.50;99.90
57829;DHT22;43657;52.698;6.314;2023-09-18T04:26:39;17.50;99.90
57829;DHT22;43657;52.698;6.314;2023-09-18T04:29:05;17.50;99.90
57829;DHT22;43657;52.698;6.314;2023-09-18T04:31:31;17.50;99.90
57829;DHT22;43657;52.698;6.314;2023-09-18T04:33:57;17.50;99.90
57829;DHT22;43657;52.698;6.314;2023-09-18T04:36:23;17.50;99.90
57829;DHT22;43657;52.698;6.314;2023-09-18T04:38:48;17.50;99.90
57829;DHT22;43657;52.698;6.314;2023-09-18T04:41:14;17.50;99.90
57829;DHT22;43657;52.698;6.314;2023-09-18T04:43:40;17.50;99.90
57829;DHT22;43657;52.698;6.314;2023-09-18T04:46:06;17.50;99.90
57829;DHT22;43657;52.698;6.314;2023-09-18T04:48:32;17.50;99.90
57829;DHT22;43657;52.698;6.314;2023-09-18T04:50:59;17.50;99.90
57829;DHT22;43657;52.698;6.314;2023-09-18T04:53:25;17.40;99.90
57829;DHT22;43657;52.698;6.314;2023-09-18T04:55:52;17.50;99.90
57829;DHT22;43657;52.698;6.314;2023-09-18T04:58:18;17.50;99.90
57829;DHT22;43657;52.698;6.314;2023-09-18T05:00:44;17.50;99.90
57829;DHT22;43657;52.698;6.314;2023-09-18T05:03:10;17.50;99.90
57829;DHT22;43657;52.698;6.314;2023-09-18T05:05:36;17.50;99.90
57829;DHT22;43657;52.698;6.314;2023-09-18T05:08:04;17.50;99.90
57829;DHT22;43657;52.698;6.314;2023-09-18T05:10:33;17.50;99.90
57829;DHT22;43657;52.698;6.314;2023-09-18T05:12:59;17.60;99.90
57829;DHT22;43657;52.698;6.314;2023-09-18T05:15:25;17.60;99.90
57829;DHT22;43657;52.698;6.314;2023-09-18T05:17:52;17.50;99.90
57829;DHT22;43657;52.698;6.314;2023-09-18T05:20:25;17.50;99.90
57829;DHT22;43657;52.698;6.314;2023-09-18T05:22:52;17.50;99.90
57829;DHT22;43657;52.698;6.314;2023-09-18T05:25:26;17.50;99.90
57829;DHT22;43657;52.698;6.314;2023-09-18T05:27:52;17.50;99.90
57829;DHT22;43657;52.698;6.314;2023-09-18T05:30:28;17.50;99.90
57829;DHT22;43657;52.698;6.314;2023-09-18T05:32:58;17.50;99.90
57829;DHT22;43657;52.698;6.314;2023-09-18T05:35:34;17.40;99.90
57829;DHT22;43657;52.698;6.314;2023-09-18T05:38:02;17.40;99.90
57829;DHT22;43657;52.698;6.314;2023-09-18T05:40:28;17.40;99.90
57829;DHT22;43657;52.698;6.314;2023-09-18T05:42:55;17.40;99.90
57829;DHT22;43657;52.698;6.314;2023-09-18T05:45:21;17.40;99.90
57829;DHT22;43657;52.698;6.314;2023-09-18T05:47:47;17.40;99.90
57829;DHT22;43657;52.698;6.314;2023-09-18T05:50:14;17.40;99.90
57829;DHT22;43657;52.698;6.314;2023-09-18T05:52:40;17.40;99.90
57829;DHT22;43657;52.698;6.314;2023-09-18T05:55:06;17.40;99.90
57829;DHT22;43657;52.698;6.314;2023-09-18T05:57:35;17.40;99.90
57829;DHT22;43657;52.698;6.314;2023-09-18T06:00:01;17.50;99.90
57829;DHT22;43657;52.698;6.314;2023-09-18T06:02:27;17.50;99.90
57829;DHT22;43657;52.698;6.314;2023-09-18T06:04:56;17.50;99.90
57829;DHT22;43657;52.698;6.314;2023-09-18T06:07:32;17.50;99.90
57829;DHT22;43657;52.698;6.314;2023-09-18T06:09:58;17.60;99.90
57829;DHT22;43657;52.698;6.314;2023-09-18T06:12:24;17.50;99.90
57829;DHT22;43657;52.698;6.314;2023-09-18T06:14:50;17.60;99.90
57829;DHT22;43657;52.698;6.314;2023-09-18T06:17:16;17.60;99.90
57829;DHT22;43657;52.698;6.314;2023-09-18T06:19:43;17.70;99.90
57829;DHT22;43657;52.698;6.314;2023-09-18T06:22:09;17.70;99.90
57829;DHT22;43657;52.698;6.314;2023-09-18T06:24:35;17.70;99.90
57829;DHT22;43657;52.698;6.314;2023-09-18T06:27:01;17.70;99.90
57829;DHT22;43657;52.698;6.314;2023-09-18T06:29:26;17.80;99.90
57829;DHT22;43657;52.698;6.314;2023-09-18T06:31:52;17.80;99.90
57829;DHT22;43657;52.698;6.314;2023-09-18T06:34:18;17.80;99.90
57829;DHT22;43657;52.698;6.314;2023-09-18T06:36:43;17.80;99.90
57829;DHT22;43657;52.698;6.314;2023-09-18T06:39:09;17.90;99.90
57829;DHT22;43657;52.698;6.314;2023-09-18T06:41:34;17.80;99.90
57829;DHT22;43657;52.698;6.314;2023-09-18T06:44:01;17.80;99.90
57829;DHT22;43657;52.698;6.314;2023-09-18T06:46:29;17.80;99.90
57829;DHT22;43657;52.698;6.314;2023-09-18T06:48:56;17.80;99.90
57829;DHT22;43657;52.698;6.314;2023-09-18T06:51:22;17.80;99.90
57829;DHT22;43657;52.698;6.314;2023-09-18T06:53:48;17.80;99.90
57829;DHT22;43657;52.698;6.314;2023-09-18T06:56:14;17.80;99.90
57829;DHT22;43657;52.698;6.314;2023-09-18T06:58:39;17.90;99.90
57829;DHT22;43657;52.698;6.314;2023-09-18T07:01:05;17.90;99.90
57829;DHT22;43657;52.698;6.314;2023-09-18T07:03:35;17.90;99.90
57829;DHT22;43657;52.698;6.314;2023-09-18T07:06:02;17.90;99.90
57829;DHT22;43657;52.698;6.314;2023-09-18T07:08:27;17.90;99.90
57829;DHT22;43657;52.698;6.314;2023-09-18T07:10:53;18.00;99.90
57829;DHT22;43657;52.698;6.314;2023-09-18T07:13:19;18.10;99.90
57829;DHT22;43657;52.698;6.314;2023-09-18T07:19:53;18.10;99.90
57829;DHT22;43657;52.698;6.314;2023-09-18T07:22:54;18.10;99.90
57829;DHT22;43657;52.698;6.314;2023-09-18T07:26:01;18.00;99.90
57829;DHT22;43657;52.698;6.314;2023-09-18T07:35:29;18.10;99.90
57829;DHT22;43657;52.698;6.314;2023-09-18T07:42:17;18.10;99.90
57829;DHT22;43657;52.698;6.314;2023-09-18T07:49:01;18.20;99.90
57829;DHT22;43657;52.698;6.314;2023-09-18T07:56:08;18.30;99.90
57829;DHT22;43657;52.698;6.314;2023-09-18T07:59:06;18.30;99.90
57829;DHT22;43657;52.698;6.314;2023-09-18T08:02:06;18.20;99.90
57829;DHT22;43657;52.698;6.314;2023-09-18T08:08:23;18.40;99.90
57829;DHT22;43657;52.698;6.314;2023-09-18T08:11:41;18.40;99.90
57829;DHT22;43657;52.698;6.314;2023-09-18T08:25:41;18.60;99.90
57829;DHT22;43657;52.698;6.314;2023-09-18T08:28:30;18.60;99.90
57829;DHT22;43657;52.698;6.314;2023-09-18T08:34:47;18.70;99.90
57829;DHT22;43657;52.698;6.314;2023-09-18T08:37:46;18.70;99.90
57829;DHT22;43657;52.698;6.314;2023-09-18T08:43:34;18.70;99.90
57829;DHT22;43657;52.698;6.314;2023-09-18T08:47:07;18.70;99.90
57829;DHT22;43657;52.698;6.314;2023-09-18T08:50:21;18.70;99.90
57829;DHT22;43657;52.698;6.314;2023-09-18T08:53:42;18.80;99.90
57829;DHT22;43657;52.698;6.314;2023-09-18T08:57:08;18.80;99.90
57829;DHT22;43657;52.698;6.314;2023-09-18T09:03:36;18.90;99.90
57829;DHT22;43657;52.698;6.314;2023-09-18T09:06:48;18.80;99.90
57829;DHT22;43657;52.698;6.314;2023-09-18T09:12:53;19.10;99.90
57829;DHT22;43657;52.698;6.314;2023-09-18T09:19:11;19.30;99.90
57829;DHT22;43657;52.698;6.314;2023-09-18T09:21:51;19.40;99.90
57829;DHT22;43657;52.698;6.314;2023-09-18T09:24:49;19.50;99.90
57829;DHT22;43657;52.698;6.314;2023-09-18T09:42:47;19.80;99.90
57829;DHT22;43657;52.698;6.314;2023-09-18T09:45:42;19.90;99.90
57829;DHT22;43657;52.698;6.314;2023-09-18T09:49:03;19.90;99.90
57829;DHT22;43657;52.698;6.314;2023-09-18T10:12:13;20.30;99.90
57829;DHT22;43657;52.698;6.314;2023-09-18T10:15:21;20.20;99.90
57829;DHT22;43657;52.698;6.314;2023-09-18T10:21:21;20.40;99.90
57829;DHT22;43657;52.698;6.314;2023-09-18T10:24:14;20.50;99.90
57829;DHT22;43657;52.698;6.314;2023-09-18T10:26:55;21.00;99.90
57829;DHT22;43657;52.698;6.314;2023-09-18T10:29:22;21.30;99.90
57829;DHT22;43657;52.698;6.314;2023-09-18T10:31:50;21.60;99.90
57829;DHT22;43657;52.698;6.314;2023-09-18T10:34:21;21.90;99.90
57829;DHT22;43657;52.698;6.314;2023-09-18T10:36:48;22.00;99.90
57829;DHT22;43657;52.698;6.314;2023-09-18T10:39:14;22.00;99.90
57829;DHT22;43657;52.698;6.314;2023-09-18T10:41:47;21.80;99.90
57829;DHT22;43657;52.698;6.314;2023-09-18T10:44:14;21.40;99.90
57829;DHT22;43657;52.698;6.314;2023-09-18T10:46:40;21.30;99.90
57829;DHT22;43657;52.698;6.314;2023-09-18T10:49:07;21.10;99.90
57829;DHT22;43657;52.698;6.314;2023-09-18T10:51:32;20.90;99.90
57829;DHT22;43657;52.698;6.314;2023-09-18T10:54:03;20.70;99.90
57829;DHT22;43657;52.698;6.314;2023-09-18T10:56:29;20.50;99.90
57829;DHT22;43657;52.698;6.314;2023-09-18T10:58:59;20.50;99.90
57829;DHT22;43657;52.698;6.314;2023-09-18T11:01:27;20.50;99.90
57829;DHT22;43657;52.698;6.314;2023-09-18T11:04:01;20.50;99.90
57829;DHT22;43657;52.698;6.314;2023-09-18T11:06:27;20.60;99.90
57829;DHT22;43657;52.698;6.314;2023-09-18T11:09:01;20.60;99.90
57829;DHT22;43657;52.698;6.314;2023-09-18T11:11:29;20.60;99.90
57829;DHT22;43657;52.698;6.314;2023-09-18T11:13:58;20.60;99.90
57829;DHT22;43657;52.698;6.314;2023-09-18T11:21:33;20.40;99.90
57829;DHT22;43657;52.698;6.314;2023-09-18T11:24:21;20.20;99.90
57829;DHT22;43657;52.698;6.314;2023-09-18T11:26:49;20.00;99.90
57829;DHT22;43657;52.698;6.314;2023-09-18T11:29:22;19.90;99.90
57829;DHT22;43657;52.698;6.314;2023-09-18T11:31:53;19.90;99.90
57829;DHT22;43657;52.698;6.314;2023-09-18T11:34:26;19.80;99.90
57829;DHT22;43657;52.698;6.314;2023-09-18T11:36:54;19.80;99.90
57829;DHT22;43657;52.698;6.314;2023-09-18T11:39:34;19.60;99.90
57829;DHT22;43657;52.698;6.314;2023-09-18T11:44:34;19.50;99.90
57829;DHT22;43657;52.698;6.314;2023-09-18T11:47:02;19.60;99.90
57829;DHT22;43657;52.698;6.314;2023-09-18T11:49:29;19.60;99.90
57829;DHT22;43657;52.698;6.314;2023-09-18T11:52:00;19.90;99.90
57829;DHT22;43657;52.698;6.314;2023-09-18T11:54:31;20.10;99.90
57829;DHT22;43657;52.698;6.314;2023-09-18T11:57:03;20.30;99.90
57829;DHT22;43657;52.698;6.314;2023-09-18T11:59:34;20.50;99.90
57829;DHT22;43657;52.698;6.314;2023-09-18T12:02:01;20.50;99.90
57829;DHT22;43657;52.698;6.314;2023-09-18T12:04:32;20.40;99.90
57829;DHT22;43657;52.698;6.314;2023-09-18T12:06:59;20.60;99.90
57829;DHT22;43657;52.698;6.314;2023-09-18T12:09:32;21.10;99.90
57829;DHT22;43657;52.698;6.314;2023-09-18T12:12:01;21.50;99.90
57829;DHT22;43657;52.698;6.314;2023-09-18T12:14:31;22.00;99.90
57829;DHT22;43657;52.698;6.314;2023-09-18T12:16:58;22.30;99.90
57829;DHT22;43657;52.698;6.314;2023-09-18T12:19:24;22.40;99.90
57829;DHT22;43657;52.698;6.314;2023-09-18T12:21:51;22.60;99.90
57829;DHT22;43657;52.698;6.314;2023-09-18T12:24:24;22.80;99.90
57829;DHT22;43657;52.698;6.314;2023-09-18T12:26:50;23.20;99.90
57829;DHT22;43657;52.698;6.314;2023-09-18T12:29:16;23.30;99.90
57829;DHT22;43657;52.698;6.314;2023-09-18T12:31:42;23.30;99.90
57829;DHT22;43657;52.698;6.314;2023-09-18T12:34:14;23.10;99.90
57829;DHT22;43657;52.698;6.314;2023-09-18T12:36:42;22.50;99.90
57829;DHT22;43657;52.698;6.314;2023-09-18T12:39:08;22.10;99.90
57829;DHT22;43657;52.698;6.314;2023-09-18T12:41:35;21.80;99.90
57829;DHT22;43657;52.698;6.314;2023-09-18T12:44:01;21.60;99.90
57829;DHT22;43657;52.698;6.314;2023-09-18T12:46:29;21.90;99.90
57829;DHT22;43657;52.698;6.314;2023-09-18T12:48:55;22.40;99.90
57829;DHT22;43657;52.698;6.314;2023-09-18T12:51:29;22.80;99.90
57829;DHT22;43657;52.698;6.314;2023-09-18T12:54:01;22.80;99.90
57829;DHT22;43657;52.698;6.314;2023-09-18T12:56:32;22.70;99.90
57829;DHT22;43657;52.698;6.314;2023-09-18T12:58:58;22.70;99.90
57829;DHT22;43657;52.698;6.314;2023-09-18T13:01:24;22.70;99.90
57829;DHT22;43657;52.698;6.314;2023-09-18T13:03:53;23.00;99.90
57829;DHT22;43657;52.698;6.314;2023-09-18T13:06:21;23.30;99.90
57829;DHT22;43657;52.698;6.314;2023-09-18T13:08:47;23.50;99.90
57829;DHT22;43657;52.698;6.314;2023-09-18T13:11:13;23.60;99.90
57829;DHT22;43657;52.698;6.314;2023-09-18T13:13:42;23.70;99.90
57829;DHT22;43657;52.698;6.314;2023-09-18T13:16:09;23.90;99.90
57829;DHT22;43657;52.698;6.314;2023-09-18T13:18:36;24.00;99.90
57829;DHT22;43657;52.698;6.314;2023-09-18T13:21:11;24.00;99.90
57829;DHT22;43657;52.698;6.314;2023-09-18T13:23:37;23.80;99.90
57829;DHT22;43657;52.698;6.314;2023-09-18T13:26:04;23.40;99.90
57829;DHT22;43657;52.698;6.314;2023-09-18T13:28:30;23.10;99.90
57829;DHT22;43657;52.698;6.314;2023-09-18T13:30:56;22.90;99.90
57829;DHT22;43657;52.698;6.314;2023-09-18T13:33:22;22.90;99.90
57829;DHT22;43657;52.698;6.314;2023-09-18T13:35:49;23.10;99.90
57829;DHT22;43657;52.698;6.314;2023-09-18T13:38:15;23.30;99.90
57829;DHT22;43657;52.698;6.314;2023-09-18T13:40:41;23.40;99.90
57829;DHT22;43657;52.698;6.314;2023-09-18T13:43:11;23.30;99.90
57829;DHT22;43657;52.698;6.314;2023-09-18T13:45:37;23.10;99.90
57829;DHT22;43657;52.698;6.314;2023-09-18T13:48:04;23.10;99.90
57829;DHT22;43657;52.698;6.314;2023-09-18T13:50:30;22.90;99.90
57829;DHT22;43657;52.698;6.314;2023-09-18T13:52:55;22.70;99.90
57829;DHT22;43657;52.698;6.314;2023-09-18T13:55:22;22.60;99.90
57829;DHT22;43657;52.698;6.314;2023-09-18T13:57:47;22.60;99.90
57829;DHT22;43657;52.698;6.314;2023-09-18T14:00:13;22.40;99.90
57829;DHT22;43657;52.698;6.314;2023-09-18T14:02:40;22.30;99.90
57829;DHT22;43657;52.698;6.314;2023-09-18T14:05:07;22.30;99.90
57829;DHT22;43657;52.698;6.314;2023-09-18T14:07:32;22.20;99.90
57829;DHT22;43657;52.698;6.314;2023-09-18T14:09:58;22.20;99.90
57829;DHT22;43657;52.698;6.314;2023-09-18T14:12:24;22.10;99.90
57829;DHT22;43657;52.698;6.314;2023-09-18T14:14:50;21.90;99.90
57829;DHT22;43657;52.698;6.314;2023-09-18T14:17:16;21.80;99.90
57829;DHT22;43657;52.698;6.314;2023-09-18T14:19:43;21.70;99.90
57829;DHT22;43657;52.698;6.314;2023-09-18T14:22:09;21.70;99.90
57829;DHT22;43657;52.698;6.314;2023-09-18T14:24:35;21.60;99.90
57829;DHT22;43657;52.698;6.314;2023-09-18T14:27:02;21.50;99.90
57829;DHT22;43657;52.698;6.314;2023-09-18T14:29:28;21.50;99.90
57829;DHT22;43657;52.698;6.314;2023-09-18T14:31:56;21.50;99.90
57829;DHT22;43657;52.698;6.314;2023-09-18T14:34:21;21.40;99.90
57829;DHT22;43657;52.698;6.314;2023-09-18T14:36:47;21.30;99.90
57829;DHT22;43657;52.698;6.314;2023-09-18T14:39:13;21.30;99.90
57829;DHT22;43657;52.698;6.314;2023-09-18T14:41:39;21.20;99.90
57829;DHT22;43657;52.698;6.314;2023-09-18T14:44:05;21.20;99.90
57829;DHT22;43657;52.698;6.314;2023-09-18T14:46:31;21.20;99.90
57829;DHT22;43657;52.698;6.314;2023-09-18T14:49:01;21.20;99.90
57829;DHT22;43657;52.698;6.314;2023-09-18T14:51:30;21.10;99.90
57829;DHT22;43657;52.698;6.314;2023-09-18T14:53:56;21.10;99.90
57829;DHT22;43657;52.698;6.314;2023-09-18T14:56:22;21.10;99.90
57829;DHT22;43657;52.698;6.314;2023-09-18T14:58:48;21.00;99.90
57829;DHT22;43657;52.698;6.314;2023-09-18T15:01:13;20.80;99.90
57829;DHT22;43657;52.698;6.314;2023-09-18T15:03:40;20.80;99.90
57829;DHT22;43657;52.698;6.314;2023-09-18T15:06:05;20.70;99.90
57829;DHT22;43657;52.698;6.314;2023-09-18T15:08:33;20.70;99.90
57829;DHT22;43657;52.698;6.314;2023-09-18T15:10:59;20.70;99.90
57829;DHT22;43657;52.698;6.314;2023-09-18T15:13:25;20.70;99.90
57829;DHT22;43657;52.698;6.314;2023-09-18T15:15:50;20.80;99.90
57829;DHT22;43657;52.698;6.314;2023-09-18T15:18:16;20.70;99.90
57829;DHT22;43657;52.698;6.314;2023-09-18T15:20:42;20.80;99.90
57829;DHT22;43657;52.698;6.314;2023-09-18T15:23:08;20.80;99.90
57829;DHT22;43657;52.698;6.314;2023-09-18T15:25:35;20.90;99.90
57829;DHT22;43657;52.698;6.314;2023-09-18T15:28:04;20.80;99.90
57829;DHT22;43657;52.698;6.314;2023-09-18T15:30:31;20.80;99.90
57829;DHT22;43657;52.698;6.314;2023-09-18T15:32:57;20.80;99.90
57829;DHT22;43657;52.698;6.314;2023-09-18T15:35:23;20.80;99.90
57829;DHT22;43657;52.698;6.314;2023-09-18T15:37:50;20.70;99.90
57829;DHT22;43657;52.698;6.314;2023-09-18T15:40:16;20.70;99.90
57829;DHT22;43657;52.698;6.314;2023-09-18T15:42:45;20.70;99.90
57829;DHT22;43657;52.698;6.314;2023-09-18T15:45:11;20.70;99.90
57829;DHT22;43657;52.698;6.314;2023-09-18T15:47:37;20.60;99.90
57829;DHT22;43657;52.698;6.314;2023-09-18T15:50:05;20.60;99.90
57829;DHT22;43657;52.698;6.314;2023-09-18T15:52:31;20.60;99.90
57829;DHT22;43657;52.698;6.314;2023-09-18T15:54:57;20.60;99.90
57829;DHT22;43657;52.698;6.314;2023-09-18T15:57:24;20.60;99.90
57829;DHT22;43657;52.698;6.314;2023-09-18T15:59:50;20.60;99.90
57829;DHT22;43657;52.698;6.314;2023-09-18T16:02:15;20.50;99.90
57829;DHT22;43657;52.698;6.314;2023-09-18T16:04:41;20.40;99.90
57829;DHT22;43657;52.698;6.314;2023-09-18T16:07:07;20.30;99.90
57829;DHT22;43657;52.698;6.314;2023-09-18T16:09:37;20.20;99.90
57829;DHT22;43657;52.698;6.314;2023-09-18T16:12:03;20.10;99.90
57829;DHT22;43657;52.698;6.314;2023-09-18T16:14:29;20.10;99.90
57829;DHT22;43657;52.698;6.314;2023-09-18T16:16:55;20.00;99.90
57829;DHT22;43657;52.698;6.314;2023-09-18T16:19:20;19.90;99.90
57829;DHT22;43657;52.698;6.314;2023-09-18T16:35:53;18.70;99.90
57829;DHT22;43657;52.698;6.314;2023-09-18T16:38:42;18.30;99.90
57829;DHT22;43657;52.698;6.314;2023-09-18T19:57:22;16.00;99.90
57829;DHT22;43657;52.698;6.314;2023-09-18T19:59:48;16.00;99.90
57829;DHT22;43657;52.698;6.314;2023-09-18T20:02:37;16.10;99.90
57829;DHT22;43657;52.698;6.314;2023-09-18T20:05:08;16.10;99.90
57829;DHT22;43657;52.698;6.314;2023-09-18T20:07:35;16.10;99.90
57829;DHT22;43657;52.698;6.314;2023-09-18T20:10:34;16.20;99.90
57829;DHT22;43657;52.698;6.314;2023-09-18T21:09:58;15.90;99.90
57829;DHT22;43657;52.698;6.314;2023-09-18T21:12:24;15.90;99.90
57829;DHT22;43657;52.698;6.314;2023-09-18T21:14:50;15.90;99.90
57829;DHT22;43657;52.698;6.314;2023-09-18T21:17:16;15.90;99.90
57829;DHT22;43657;52.698;6.314;2023-09-18T21:19:45;15.90;99.90
57829;DHT22;43657;52.698;6.314;2023-09-18T21:22:43;15.90;99.90
57829;DHT22;43657;52.698;6.314;2023-09-18T21:25:28;15.90;99.90
57829;DHT22;43657;52.698;6.314;2023-09-18T21:27:58;16.00;99.90
57829;DHT22;43657;52.698;6.314;2023-09-18T21:30:27;15.90;99.90
57829;DHT22;43657;52.698;6.314;2023-09-18T21:32:54;16.00;99.90
57829;DHT22;43657;52.698;6.314;2023-09-18T21:35:32;15.90;99.90
57829;DHT22;43657;52.698;6.314;2023-09-18T21:37:58;15.90;99.90
57829;DHT22;43657;52.698;6.314;2023-09-18T21:40:26;15.90;99.90
57829;DHT22;43657;52.698;6.314;2023-09-18T21:42:52;15.80;99.90
57829;DHT22;43657;52.698;6.314;2023-09-18T21:45:19;15.70;99.90
57829;DHT22;43657;52.698;6.314;2023-09-18T21:47:46;15.80;99.90
57829;DHT22;43657;52.698;6.314;2023-09-18T21:50:11;15.50;99.90
57829;DHT22;43657;52.698;6.314;2023-09-18T21:52:37;15.40;99.90
57829;DHT22;43657;52.698;6.314;2023-09-18T21:55:03;15.30;99.90
57829;DHT22;43657;52.698;6.314;2023-09-18T21:57:29;15.30;99.90